KARR/ARR METAR and TAF weather

Enter ICAO airport designator
Station Type Date Time Source
KARR METAR 2018/12/10 16:52 UTC NOAA

KARR 101652Z 22006KT 3SM HZ CLR M02/M05 A3028 RMK AO2 SLP265 I1002 T10221050


Station Type Date Time Source
KARR Decoded METAR 2018/12/10 16:52 UTC NOAA

CHICAGO AURORA MUNICIPAL, IL, United States (KARR) 41-46N 088-28W 215M
Dec 10, 2018 - 11:52 AM EST / 2018.12.10 1652 UTC
Wind: from the SW (220 degrees) at 7 MPH (6 KT):0
Visibility: 3 mile(s):0
Sky conditions: clear
Weather: haze
Temperature: 28.0 F (-2.2 C)
Windchill: 21 F (-6 C):1
Dew Point: 23.0 F (-5.0 C)
Relative Humidity: 81%
Pressure (altimeter): 30.28 in. Hg (1025 hPa)
ob: KARR 101652Z 22006KT 3SM HZ CLR M02/M05 A3028 RMK AO2 SLP265 I1002 T10221050
cycle: 17

Station Type Date Time Source
KARR TAF UTC NOAA

Error!


Example: see airport list